Time;durP1;ratioP1;P1;durP2;ratioP2;P2;SDS_P1;SDS_P2;PMS_P1;PMS_P2;Temp;Humidity;BMP_temperature;BMP_pressure;BME280_temperature;BME280_humidity;BME280_pressure;Samples;Min_cycle;Max_cycle;Signal;HPM_P1;HPM_P2
2021/12/28 00:01:24;;;;;;;88.18;46.08;;;5.30;99.90;;;;;;4946631;28;20062;-48
2021/12/28 00:03:51;;;;;;;75.57;43.90;;;5.40;99.90;;;;;;4926970;29;20055;-54
2021/12/28 00:06:18;;;;;;;91.05;45.72;;;5.40;99.90;;;;;;4946892;28;20070;-48
2021/12/28 00:08:44;;;;;;;84.72;44.72;;;5.40;99.90;;;;;;4947895;28;20046;-48
2021/12/28 00:11:10;;;;;;;84.90;44.60;;;5.40;99.90;;;;;;4906644;28;20063;-49
2021/12/28 00:13:37;;;;;;;112.63;48.83;;;5.50;99.90;;;;;;4947153;28;20058;-48
2021/12/28 00:18:33;;;;;;;94.07;50.08;;;5.50;99.90;;;;;;4946324;28;20055;-47
2021/12/28 00:21:07;;;;;;;101.28;51.78;;;5.60;99.90;;;;;;4945644;28;20054;-48
2021/12/28 00:23:38;;;;;;;106.50;50.78;;;5.70;99.90;;;;;;4914840;29;20126;-48
2021/12/28 00:26:06;;;;;;;114.50;52.88;;;5.80;99.90;;;;;;4946647;28;20056;-48
2021/12/28 00:28:32;;;;;;;103.95;53.22;;;5.80;99.90;;;;;;4929264;29;20406;-47
2021/12/28 00:30:59;;;;;;;127.03;55.88;;;5.90;99.90;;;;;;4945795;28;20059;-48
2021/12/28 00:33:26;;;;;;;124.78;55.05;;;5.90;99.90;;;;;;4946287;28;20462;-50
2021/12/28 00:35:52;;;;;;;117.93;53.63;;;6.00;99.90;;;;;;4947323;28;20093;-48
2021/12/28 00:38:22;;;;;;;124.88;56.22;;;5.90;99.90;;;;;;4946774;28;20370;-48
2021/12/28 00:40:58;;;;;;;114.53;55.85;;;5.90;99.90;;;;;;4945630;29;20081;-51
2021/12/28 00:43:26;;;;;;;108.55;53.38;;;6.10;99.90;;;;;;4946966;29;20081;-48
2021/12/28 00:45:52;;;;;;;121.47;55.95;;;6.20;99.90;;;;;;4946820;29;20136;-48
2021/12/28 00:48:17;;;;;;;119.90;55.72;;;6.20;99.90;;;;;;4935585;28;20073;-48
2021/12/28 00:50:44;;;;;;;126.07;54.50;;;6.20;99.90;;;;;;4946809;28;20047;-48
2021/12/28 00:53:11;;;;;;;123.47;55.58;;;6.20;99.90;;;;;;4945708;29;20059;-48
2021/12/28 00:55:37;;;;;;;127.63;54.17;;;6.20;99.90;;;;;;4946703;29;20055;-48
2021/12/28 00:58:04;;;;;;;152.65;57.05;;;6.10;99.90;;;;;;4947102;29;20486;-48
2021/12/28 01:00:33;;;;;;;149.07;55.30;;;6.20;99.90;;;;;;4946245;28;20126;-49
2021/12/28 01:03:01;;;;;;;156.90;58.13;;;6.10;99.90;;;;;;4945170;28;20518;-48
2021/12/28 01:05:28;;;;;;;153.45;59.03;;;6.20;99.90;;;;;;4948238;29;20051;-48
2021/12/28 01:07:55;;;;;;;175.25;59.83;;;6.20;99.90;;;;;;4948723;29;20127;-48
2021/12/28 01:10:24;;;;;;;168.10;59.83;;;6.30;99.90;;;;;;4928944;29;20059;-47
2021/12/28 01:12:52;;;;;;;170.68;57.95;;;6.30;99.90;;;;;;4923728;29;20043;-48
2021/12/28 01:15:20;;;;;;;183.27;59.35;;;6.30;99.90;;;;;;4916475;29;20063;-48
2021/12/28 01:17:45;;;;;;;181.70;59.45;;;6.20;99.90;;;;;;4942353;29;20494;-49
2021/12/28 01:20:12;;;;;;;240.43;66.03;;;6.20;99.90;;;;;;4938276;29;20049;-48
2021/12/28 01:22:39;;;;;;;212.65;63.15;;;6.20;99.90;;;;;;4930850;29;20043;-49
2021/12/28 01:25:06;;;;;;;223.10;65.88;;;6.20;99.90;;;;;;4946393;29;20059;-49
2021/12/28 01:27:32;;;;;;;161.25;55.13;;;6.20;99.90;;;;;;4945813;29;20701;-48
2021/12/28 01:29:58;;;;;;;230.55;65.00;;;6.20;99.90;;;;;;4928246;29;20434;-50
2021/12/28 01:32:24;;;;;;;281.35;67.95;;;6.20;99.90;;;;;;4945590;29;20055;-48
2021/12/28 01:34:55;;;;;;;218.88;63.42;;;6.30;99.90;;;;;;4945771;29;20097;-49
2021/12/28 01:37:20;;;;;;;262.60;66.40;;;6.30;99.90;;;;;;4946365;29;20430;-48
2021/12/28 01:39:46;;;;;;;308.65;69.88;;;6.30;99.90;;;;;;4946065;29;20051;-48
2021/12/28 01:42:12;;;;;;;291.88;67.97;;;6.20;99.90;;;;;;4928779;29;20090;-48
2021/12/28 01:44:38;;;;;;;302.58;68.45;;;6.20;99.90;;;;;;4945919;29;20050;-48
2021/12/28 01:47:04;;;;;;;238.70;62.83;;;6.30;99.90;;;;;;4945041;29;20086;-48
2021/12/28 01:49:30;;;;;;;215.38;61.08;;;6.30;99.90;;;;;;4927457;29;20625;-48
2021/12/28 01:51:57;;;;;;;286.45;66.43;;;6.30;99.90;;;;;;4944539;29;20062;-48
2021/12/28 01:54:23;;;;;;;247.73;62.95;;;6.30;99.90;;;;;;4945366;28;20142;-49
2021/12/28 01:56:49;;;;;;;263.83;61.45;;;6.30;99.90;;;;;;4926937;29;20100;-50
2021/12/28 01:59:18;;;;;;;229.35;59.38;;;6.30;99.90;;;;;;4946016;29;20149;-48
2021/12/28 02:01:44;;;;;;;278.35;62.83;;;6.30;99.90;;;;;;4924640;29;20157;-48
2021/12/28 02:04:29;;;;;;;300.73;64.95;;;6.30;99.90;;;;;;4936597;29;20161;-48
2021/12/28 02:06:57;;;;;;;298.92;66.85;;;6.30;99.90;;;;;;4945046;29;20051;-48
2021/12/28 02:09:24;;;;;;;266.75;65.32;;;6.30;99.90;;;;;;4927849;29;20097;-48
2021/12/28 02:11:50;;;;;;;315.00;65.05;;;6.30;99.90;;;;;;4945185;29;20095;-48
2021/12/28 02:14:22;;;;;;;310.40;66.53;;;6.30;99.90;;;;;;4946357;29;20121;-49
2021/12/28 02:16:48;;;;;;;278.42;63.08;;;6.30;99.90;;;;;;4935057;29;20051;-48
2021/12/28 02:19:15;;;;;;;196.30;56.10;;;6.30;99.90;;;;;;4948965;29;20391;-48
2021/12/28 02:21:41;;;;;;;247.63;59.88;;;6.30;99.90;;;;;;4945792;29;20151;-48
2021/12/28 02:24:08;;;;;;;238.43;59.22;;;6.30;99.90;;;;;;4945177;29;20058;-49
2021/12/28 02:26:34;;;;;;;298.35;63.03;;;6.40;99.90;;;;;;4944847;28;20672;-48
2021/12/28 02:29:00;;;;;;;221.80;57.38;;;6.40;99.90;;;;;;4943289;28;20051;-48
2021/12/28 02:31:27;;;;;;;193.60;54.25;;;6.40;99.90;;;;;;4923817;29;20414;-49
2021/12/28 02:33:53;;;;;;;173.15;50.55;;;6.40;99.90;;;;;;4941994;28;20055;-48
2021/12/28 02:36:20;;;;;;;200.00;53.15;;;6.40;99.90;;;;;;4945068;28;20516;-48
2021/12/28 02:38:47;;;;;;;142.48;50.25;;;6.30;99.90;;;;;;4942885;28;20473;-49
2021/12/28 02:41:14;;;;;;;175.18;51.47;;;6.40;99.90;;;;;;4914823;29;20106;-49
2021/12/28 02:43:40;;;;;;;163.60;49.15;;;6.30;99.90;;;;;;4941522;29;20047;-48
2021/12/28 02:46:09;;;;;;;125.70;47.03;;;6.50;99.90;;;;;;4943888;28;20593;-48
2021/12/28 02:48:36;;;;;;;126.40;48.83;;;6.50;99.90;;;;;;4944136;28;20043;-48
2021/12/28 02:51:07;;;;;;;136.93;47.33;;;6.40;99.90;;;;;;4926380;29;20079;-48
2021/12/28 02:53:32;;;;;;;145.13;49.42;;;6.40;99.90;;;;;;4944667;28;20515;-49
2021/12/28 02:55:58;;;;;;;134.57;47.65;;;6.50;99.90;;;;;;4945524;28;20518;-48
2021/12/28 02:58:32;;;;;;;114.18;44.67;;;6.50;99.90;;;;;;4946080;28;20055;-48
2021/12/28 03:01:21;;;;;;;134.40;48.03;;;6.60;99.90;;;;;;4928945;29;20485;-48
2021/12/28 03:03:50;;;;;;;131.80;43.22;;;6.60;99.90;;;;;;4946230;28;20046;-48
2021/12/28 03:06:20;;;;;;;127.28;45.53;;;6.60;99.90;;;;;;4934922;28;20059;-48
2021/12/28 03:08:49;;;;;;;117.93;42.10;;;6.50;99.90;;;;;;4920523;29;20135;-49
2021/12/28 03:11:15;;;;;;;116.15;43.05;;;6.60;99.90;;;;;;4924307;28;20154;-49
2021/12/28 03:13:47;;;;;;;131.70;41.60;;;6.60;99.90;;;;;;4928303;29;20082;-48
2021/12/28 03:16:14;;;;;;;122.78;41.85;;;6.60;99.90;;;;;;4945111;28;20047;-48
2021/12/28 03:18:40;;;;;;;109.28;40.53;;;6.50;99.90;;;;;;4946427;28;20050;-49
2021/12/28 03:21:07;;;;;;;114.80;40.78;;;6.70;99.90;;;;;;4928697;28;20051;-49
2021/12/28 03:23:34;;;;;;;102.97;39.90;;;6.50;99.90;;;;;;4946858;28;20070;-51
2021/12/28 03:26:11;;;;;;;115.05;41.33;;;6.50;99.90;;;;;;4957935;28;20066;-48
2021/12/28 03:28:39;;;;;;;116.07;39.80;;;6.50;99.90;;;;;;4947795;28;20047;-48
2021/12/28 03:31:06;;;;;;;128.25;42.08;;;6.60;99.90;;;;;;4945954;28;20047;-48
2021/12/28 03:33:46;;;;;;;102.72;38.65;;;6.50;99.90;;;;;;4945724;28;20094;-51
2021/12/28 03:36:13;;;;;;;108.88;40.67;;;6.50;99.90;;;;;;4957139;28;20094;-48
2021/12/28 03:38:41;;;;;;;120.28;39.80;;;6.50;99.90;;;;;;4942222;28;20142;-49
2021/12/28 03:41:15;;;;;;;114.53;41.38;;;6.50;99.90;;;;;;4945921;29;20054;-47
2021/12/28 03:43:43;;;;;;;122.80;40.90;;;6.50;99.90;;;;;;4944072;29;20121;-49
2021/12/28 03:46:14;;;;;;;128.45;42.40;;;6.50;99.90;;;;;;4944560;29;20497;-49
2021/12/28 03:48:41;;;;;;;124.43;43.80;;;6.60;99.90;;;;;;4943752;28;20565;-48
2021/12/28 03:51:08;;;;;;;121.95;41.97;;;6.60;99.90;;;;;;4923690;29;20419;-48
2021/12/28 03:53:34;;;;;;;132.15;42.53;;;6.70;99.90;;;;;;4921140;29;20094;-47
2021/12/28 03:56:07;;;;;;;125.18;42.72;;;6.60;99.90;;;;;;4925300;29;20059;-49
2021/12/28 03:58:35;;;;;;;115.80;41.95;;;6.60;99.90;;;;;;4925488;29;20090;-48
2021/12/28 04:01:03;;;;;;;115.90;41.67;;;6.60;99.90;;;;;;4925985;29;20063;-47
2021/12/28 04:03:29;;;;;;;110.93;40.17;;;6.50;99.90;;;;;;4925397;29;20578;-48
2021/12/28 04:05:55;;;;;;;115.32;40.60;;;6.60;99.90;;;;;;4923905;29;20572;-48
2021/12/28 04:08:23;;;;;;;105.53;41.35;;;6.70;99.90;;;;;;4912705;28;20050;-50
2021/12/28 04:11:12;;;;;;;114.10;40.30;;;6.60;99.90;;;;;;4925114;29;20430;-48
2021/12/28 04:13:36;;;;;;;109.13;39.80;;;6.60;99.90;;;;;;4926723;29;20542;-47
2021/12/28 04:16:02;;;;;;;94.55;37.60;;;6.60;99.90;;;;;;4925452;29;20374;-49
2021/12/28 04:18:28;;;;;;;93.20;37.60;;;6.60;99.90;;;;;;4925724;29;20048;-47
2021/12/28 04:20:59;;;;;;;92.32;37.38;;;6.70;99.90;;;;;;4926642;29;20062;-49
2021/12/28 04:23:24;;;;;;;104.38;36.88;;;6.70;99.90;;;;;;4926653;29;20524;-49
2021/12/28 04:25:50;;;;;;;94.00;35.35;;;6.60;99.90;;;;;;4925163;29;20048;-48
2021/12/28 04:28:16;;;;;;;100.15;35.90;;;6.60;99.90;;;;;;4926060;29;20052;-47
2021/12/28 04:30:44;;;;;;;95.15;36.83;;;6.50;99.90;;;;;;4925631;29;20051;-48
2021/12/28 04:33:10;;;;;;;87.95;35.88;;;6.50;99.90;;;;;;4925975;29;20833;-48
2021/12/28 04:35:36;;;;;;;86.78;35.00;;;6.50;99.90;;;;;;4926292;29;20055;-50
2021/12/28 04:38:02;;;;;;;97.35;34.15;;;6.50;99.90;;;;;;4928998;29;20051;-48
2021/12/28 04:40:33;;;;;;;90.60;34.05;;;6.40;99.90;;;;;;4913925;29;20107;-52
2021/12/28 04:43:06;;;;;;;77.03;33.88;;;6.30;99.90;;;;;;4927234;29;20083;-48
2021/12/28 04:45:32;;;;;;;78.55;33.42;;;6.20;99.90;;;;;;4925039;29;20098;-48
2021/12/28 04:47:57;;;;;;;94.57;33.28;;;6.20;99.90;;;;;;4921290;29;20138;-48
2021/12/28 04:50:24;;;;;;;92.07;33.22;;;6.20;99.90;;;;;;4922506;29;20055;-48
2021/12/28 04:52:52;;;;;;;98.30;33.85;;;6.20;99.90;;;;;;4928519;29;20059;-49
2021/12/28 04:55:18;;;;;;;82.32;33.95;;;6.20;99.90;;;;;;4947521;29;20585;-48
2021/12/28 04:57:45;;;;;;;76.10;32.30;;;6.30;99.90;;;;;;4948382;29;20577;-48
2021/12/28 05:00:15;;;;;;;68.65;30.85;;;6.30;99.90;;;;;;4925427;29;20051;-48
2021/12/28 05:02:41;;;;;;;73.90;32.17;;;6.40;99.90;;;;;;4922043;29;20059;-48
2021/12/28 05:05:08;;;;;;;80.45;31.23;;;6.30;99.90;;;;;;4947774;29;20051;-49
2021/12/28 05:07:40;;;;;;;85.05;32.03;;;6.30;99.90;;;;;;4930000;29;20055;-49
2021/12/28 05:10:07;;;;;;;75.47;30.50;;;6.30;99.90;;;;;;4947626;29;20090;-49
2021/12/28 05:12:33;;;;;;;77.07;30.15;;;6.30;99.90;;;;;;4930403;29;20147;-49
2021/12/28 05:15:00;;;;;;;78.70;30.00;;;6.20;99.90;;;;;;4927565;28;20552;-48
2021/12/28 05:17:27;;;;;;;72.95;29.83;;;6.20;99.90;;;;;;4945967;29;20051;-49
2021/12/28 05:19:53;;;;;;;75.82;28.42;;;6.20;99.90;;;;;;4930017;29;20070;-48
2021/12/28 05:22:19;;;;;;;71.20;28.27;;;6.30;99.90;;;;;;4947408;28;20343;-48
2021/12/28 05:24:45;;;;;;;59.58;27.52;;;6.20;99.90;;;;;;4911693;29;20067;-48
2021/12/28 05:27:10;;;;;;;64.05;26.45;;;6.20;99.90;;;;;;4926109;29;20055;-48
2021/12/28 05:29:36;;;;;;;62.75;27.65;;;6.20;99.90;;;;;;4945569;28;20136;-50
2021/12/28 05:32:02;;;;;;;67.38;26.90;;;6.20;99.90;;;;;;4947174;28;20062;-48
2021/12/28 05:34:28;;;;;;;50.55;24.80;;;6.20;99.90;;;;;;4949986;28;20047;-48
2021/12/28 05:36:54;;;;;;;65.93;23.67;;;6.30;99.90;;;;;;4947226;28;20512;-49
2021/12/28 05:39:20;;;;;;;53.08;23.38;;;6.30;99.90;;;;;;4936967;29;20059;-48
2021/12/28 05:41:45;;;;;;;63.97;22.92;;;6.40;99.90;;;;;;4940507;29;20934;-48
2021/12/28 05:44:11;;;;;;;54.92;23.58;;;6.30;99.90;;;;;;4947545;28;20043;-48
2021/12/28 05:46:37;;;;;;;56.60;23.95;;;6.40;99.90;;;;;;4933167;29;20055;-48
2021/12/28 05:49:03;;;;;;;59.75;25.00;;;6.30;99.90;;;;;;4948125;28;20062;-50
2021/12/28 05:51:30;;;;;;;51.63;24.15;;;6.30;99.90;;;;;;4924158;29;20514;-48
2021/12/28 05:53:56;;;;;;;59.83;24.88;;;6.30;99.90;;;;;;4946077;29;20199;-48
2021/12/28 05:56:22;;;;;;;53.08;24.40;;;6.40;99.90;;;;;;4947533;29;20437;-47
2021/12/28 05:58:47;;;;;;;57.25;26.08;;;6.40;99.90;;;;;;4929030;29;20516;-50
2021/12/28 06:01:13;;;;;;;53.88;24.23;;;6.30;99.90;;;;;;4944781;28;20051;-48
2021/12/28 06:03:39;;;;;;;56.13;25.33;;;6.30;99.90;;;;;;4944039;29;20049;-50
2021/12/28 06:06:05;;;;;;;51.80;23.40;;;6.40;99.90;;;;;;4945572;29;20054;-48
2021/12/28 06:08:30;;;;;;;50.17;24.52;;;6.30;99.90;;;;;;4947588;29;20057;-47
2021/12/28 06:10:57;;;;;;;56.45;24.08;;;6.30;99.90;;;;;;4945979;29;20074;-48
2021/12/28 06:13:23;;;;;;;50.78;22.73;;;6.30;99.90;;;;;;4946101;29;20043;-48
2021/12/28 06:15:49;;;;;;;51.58;26.15;;;6.30;99.90;;;;;;4927308;29;20062;-50
2021/12/28 06:18:15;;;;;;;52.00;24.05;;;6.40;99.90;;;;;;4952074;28;20054;-48
2021/12/28 06:20:41;;;;;;;46.40;24.75;;;6.30;99.90;;;;;;4917793;29;20454;-48
2021/12/28 06:23:06;;;;;;;57.65;25.25;;;6.30;99.90;;;;;;4950200;28;20050;-48
2021/12/28 06:25:33;;;;;;;50.83;23.58;;;6.40;99.90;;;;;;4952415;28;20159;-51
2021/12/28 06:28:02;;;;;;;42.55;22.65;;;6.20;99.90;;;;;;4947287;29;20055;-50
2021/12/28 06:30:31;;;;;;;51.90;22.70;;;6.40;99.90;;;;;;4946703;29;20055;-48
2021/12/28 06:33:03;;;;;;;46.92;22.08;;;6.40;99.90;;;;;;4944965;28;20054;-47
2021/12/28 06:35:29;;;;;;;49.17;22.52;;;6.40;99.90;;;;;;4945734;28;20047;-48
2021/12/28 06:37:58;;;;;;;45.97;21.92;;;6.30;99.90;;;;;;4945597;28;20524;-49
2021/12/28 06:40:23;;;;;;;50.95;22.85;;;6.30;99.90;;;;;;4916483;29;20459;-48
2021/12/28 06:42:50;;;;;;;46.50;21.13;;;6.40;99.90;;;;;;4927192;29;20055;-48
2021/12/28 06:45:22;;;;;;;35.72;21.17;;;6.30;99.90;;;;;;4945698;29;20057;-49
2021/12/28 06:47:48;;;;;;;42.85;21.30;;;6.30;99.90;;;;;;4928461;29;20103;-48
2021/12/28 06:50:15;;;;;;;37.25;19.02;;;6.30;99.90;;;;;;4946045;29;20051;-47
2021/12/28 06:52:41;;;;;;;49.00;20.23;;;6.30;99.90;;;;;;4939457;29;20078;-48
2021/12/28 06:55:08;;;;;;;43.88;20.30;;;6.40;99.90;;;;;;4945006;29;20059;-48
2021/12/28 06:57:34;;;;;;;49.15;20.98;;;6.40;99.90;;;;;;4948891;29;20719;-48
2021/12/28 07:00:00;;;;;;;39.63;20.92;;;6.40;99.90;;;;;;4927395;29;20055;-55
2021/12/28 07:02:26;;;;;;;47.08;20.10;;;6.40;99.90;;;;;;4926859;29;20051;-48
2021/12/28 07:04:52;;;;;;;36.85;19.00;;;6.40;99.90;;;;;;4944032;29;20043;-49
2021/12/28 07:07:19;;;;;;;44.22;20.48;;;6.40;99.90;;;;;;4944176;29;20462;-48
2021/12/28 07:09:45;;;;;;;40.30;19.33;;;6.40;99.90;;;;;;4939802;28;20054;-48
2021/12/28 07:12:11;;;;;;;38.67;18.75;;;6.30;99.90;;;;;;4927047;29;20450;-49
2021/12/28 07:14:36;;;;;;;40.88;19.95;;;6.40;99.90;;;;;;4943302;28;20043;-52
2021/12/28 07:17:03;;;;;;;37.13;17.95;;;6.30;99.90;;;;;;4925861;29;20058;-48
2021/12/28 07:19:29;;;;;;;42.17;18.00;;;6.40;99.90;;;;;;4931762;29;20047;-48
2021/12/28 07:21:57;;;;;;;33.25;17.85;;;6.30;99.90;;;;;;4945666;28;20421;-48
2021/12/28 07:24:23;;;;;;;35.38;17.05;;;6.30;99.90;;;;;;4943337;28;20403;-48
2021/12/28 07:26:49;;;;;;;34.78;17.42;;;6.40;99.90;;;;;;4944336;29;20051;-48
2021/12/28 07:29:15;;;;;;;30.58;17.33;;;6.40;99.90;;;;;;4926488;29;20115;-49
2021/12/28 07:31:41;;;;;;;38.00;16.50;;;6.30;99.90;;;;;;4943781;29;20066;-52
2021/12/28 07:34:07;;;;;;;37.15;16.10;;;6.40;99.90;;;;;;4945660;28;20054;-48
2021/12/28 07:36:33;;;;;;;34.85;16.70;;;6.30;99.90;;;;;;4943886;29;20046;-48
2021/12/28 07:39:00;;;;;;;39.47;16.13;;;6.40;99.90;;;;;;4921819;29;20480;-49
2021/12/28 07:41:25;;;;;;;28.95;15.00;;;6.40;99.90;;;;;;4937499;29;20053;-49
2021/12/28 07:43:53;;;;;;;35.55;15.65;;;6.40;99.90;;;;;;4944793;29;20498;-48
2021/12/28 07:46:18;;;;;;;34.72;15.45;;;6.50;99.90;;;;;;4926396;29;20055;-51
2021/12/28 07:48:44;;;;;;;36.90;16.13;;;6.40;99.90;;;;;;4926745;28;20054;-48
2021/12/28 07:51:10;;;;;;;35.05;14.98;;;6.40;99.90;;;;;;4923616;29;20453;-49
2021/12/28 07:53:36;;;;;;;34.28;14.80;;;6.30;99.90;;;;;;4924188;29;20061;-50
2021/12/28 07:56:02;;;;;;;35.63;15.50;;;6.40;99.90;;;;;;4942821;28;20062;-49
2021/12/28 07:58:28;;;;;;;32.40;15.27;;;6.30;99.90;;;;;;4943018;28;20430;-48
2021/12/28 08:00:57;;;;;;;33.95;16.52;;;6.50;99.90;;;;;;4943808;28;20091;-48
2021/12/28 08:03:24;;;;;;;33.03;15.07;;;6.50;99.90;;;;;;4944324;28;20055;-49
2021/12/28 08:05:51;;;;;;;30.92;14.55;;;6.50;99.90;;;;;;4945392;28;20454;-49
2021/12/28 08:08:17;;;;;;;32.30;15.05;;;6.40;99.90;;;;;;4936863;28;20062;-49
2021/12/28 08:10:48;;;;;;;38.72;15.05;;;6.60;99.90;;;;;;4943508;28;20047;-56
2021/12/28 08:13:16;;;;;;;33.50;15.13;;;6.40;99.90;;;;;;4958090;28;20090;-49
2021/12/28 08:15:43;;;;;;;30.33;13.85;;;6.40;99.90;;;;;;4927213;29;20066;-48
2021/12/28 08:18:09;;;;;;;29.92;13.63;;;6.50;99.90;;;;;;4947909;28;20050;-49
2021/12/28 08:20:38;;;;;;;35.72;14.98;;;6.60;99.90;;;;;;4930561;29;20078;-49
2021/12/28 08:23:05;;;;;;;27.88;14.10;;;6.60;99.90;;;;;;4949088;28;20133;-48
2021/12/28 08:25:31;;;;;;;28.75;13.65;;;6.60;99.90;;;;;;4951146;28;20044;-49
2021/12/28 08:27:58;;;;;;;34.05;13.30;;;6.50;99.90;;;;;;4946952;28;20058;-50
2021/12/28 08:30:24;;;;;;;28.98;14.25;;;6.60;99.90;;;;;;4925520;29;20056;-49
2021/12/28 08:32:50;;;;;;;30.98;13.82;;;6.60;99.90;;;;;;4948123;28;20043;-51
2021/12/28 08:35:17;;;;;;;35.80;14.18;;;6.60;99.90;;;;;;4946592;28;20059;-48
2021/12/28 08:37:43;;;;;;;34.20;14.43;;;6.70;99.90;;;;;;4945566;28;20616;-47
2021/12/28 08:40:12;;;;;;;33.17;14.52;;;6.60;99.90;;;;;;4946885;29;20047;-50
2021/12/28 08:42:37;;;;;;;30.38;13.07;;;6.70;99.90;;;;;;4942703;28;20221;-49
2021/12/28 08:45:04;;;;;;;30.45;13.90;;;6.60;99.90;;;;;;4946186;28;20094;-48
2021/12/28 08:47:30;;;;;;;30.40;13.07;;;6.70;99.90;;;;;;4930708;29;20059;-50
2021/12/28 08:49:58;;;;;;;28.80;12.88;;;6.70;99.90;;;;;;4944097;28;20045;-49
2021/12/28 08:52:24;;;;;;;36.17;14.32;;;6.70;99.90;;;;;;4946297;28;20051;-49
2021/12/28 08:54:50;;;;;;;32.78;13.93;;;6.70;99.90;;;;;;4943325;28;20653;-51
2021/12/28 08:57:18;;;;;;;31.70;13.77;;;6.70;99.90;;;;;;4945525;28;20066;-51
2021/12/28 08:59:44;;;;;;;33.63;13.90;;;6.70;99.90;;;;;;4944538;28;20406;-49
2021/12/28 09:02:09;;;;;;;31.60;14.05;;;6.70;99.90;;;;;;4943745;28;20490;-48
2021/12/28 09:04:43;;;;;;;38.70;13.68;;;6.70;99.90;;;;;;4947204;28;20098;-48
2021/12/28 09:07:13;;;;;;;42.65;15.77;;;6.60;99.90;;;;;;4920631;28;20391;-49
2021/12/28 09:09:39;;;;;;;35.30;13.95;;;6.70;99.90;;;;;;4943555;28;20099;-49
2021/12/28 09:12:05;;;;;;;29.23;14.48;;;6.80;99.90;;;;;;4940818;28;20893;-48
2021/12/28 09:14:32;;;;;;;29.92;13.82;;;6.70;99.90;;;;;;4946439;29;20066;-48
2021/12/28 09:16:58;;;;;;;35.67;15.10;;;6.80;99.90;;;;;;4929019;29;20142;-51
2021/12/28 09:19:24;;;;;;;33.85;15.80;;;6.80;99.90;;;;;;4935347;29;20062;-51
2021/12/28 09:21:50;;;;;;;36.58;16.88;;;6.80;99.90;;;;;;4922521;29;20055;-55
2021/12/28 09:24:19;;;;;;;35.78;16.35;;;6.90;99.90;;;;;;4928296;29;20063;-52
2021/12/28 09:26:45;;;;;;;31.67;16.65;;;6.90;99.90;;;;;;4925201;29;20067;-49
2021/12/28 09:29:11;;;;;;;42.33;18.38;;;7.00;99.90;;;;;;4946071;28;20283;-49
2021/12/28 09:31:36;;;;;;;35.25;18.27;;;7.00;99.90;;;;;;4936365;28;20047;-48
2021/12/28 09:34:04;;;;;;;40.25;19.08;;;7.10;99.90;;;;;;4941037;28;20496;-50
2021/12/28 09:36:29;;;;;;;41.10;19.13;;;7.20;99.90;;;;;;4921568;29;20058;-48
2021/12/28 09:38:55;;;;;;;36.92;19.05;;;7.10;99.90;;;;;;4937545;28;20051;-48
2021/12/28 09:41:21;;;;;;;43.92;18.80;;;7.20;99.90;;;;;;4939918;28;20047;-50
2021/12/28 09:43:47;;;;;;;46.22;18.83;;;7.20;99.90;;;;;;4924467;28;20059;-50
2021/12/28 09:46:13;;;;;;;32.20;19.17;;;7.20;99.90;;;;;;4941091;28;20401;-49
2021/12/28 09:48:40;;;;;;;38.33;18.50;;;7.20;99.90;;;;;;4944935;28;20407;-48
2021/12/28 09:51:07;;;;;;;42.15;19.65;;;7.20;99.90;;;;;;4935180;28;20478;-48
2021/12/28 09:53:54;;;;;;;43.15;19.90;;;7.20;99.90;;;;;;4941614;28;20051;-48
2021/12/28 09:56:20;;;;;;;40.83;19.42;;;7.20;99.90;;;;;;4903869;29;20074;-50
2021/12/28 09:58:46;;;;;;;36.20;19.88;;;7.30;99.90;;;;;;4903258;29;20048;-48
2021/12/28 10:01:12;;;;;;;39.17;20.88;;;7.30;99.90;;;;;;4892923;29;20507;-49
2021/12/28 10:03:38;;;;;;;40.95;20.73;;;7.20;99.90;;;;;;4889795;29;20071;-51
2021/12/28 10:06:25;;;;;;;43.55;21.27;;;7.20;99.90;;;;;;4893472;29;20552;-51
2021/12/28 10:09:04;;;;;;;47.38;22.60;;;7.20;99.90;;;;;;4889717;29;20048;-49
2021/12/28 10:11:36;;;;;;;43.33;21.10;;;7.20;99.90;;;;;;4894931;29;20563;-48
2021/12/28 10:14:21;;;;;;;40.47;21.73;;;7.30;99.90;;;;;;4895574;29;20047;-51
2021/12/28 10:16:51;;;;;;;37.63;21.85;;;7.20;99.90;;;;;;4905510;29;20051;-49
2021/12/28 10:19:32;;;;;;;48.78;21.65;;;7.30;99.90;;;;;;4906787;29;20169;-50
2021/12/28 10:22:17;;;;;;;41.53;20.85;;;7.20;99.90;;;;;;4904557;29;20052;-48
2021/12/28 10:24:44;;;;;;;41.15;21.45;;;7.30;99.90;;;;;;4904519;29;20159;-49
2021/12/28 10:27:10;;;;;;;44.38;22.30;;;7.20;99.90;;;;;;4901931;29;20051;-51
2021/12/28 10:29:36;;;;;;;38.80;22.30;;;7.40;99.90;;;;;;4906931;29;20611;-48
2021/12/28 10:32:25;;;;;;;46.70;22.45;;;7.40;99.90;;;;;;4901867;29;20052;-48
2021/12/28 10:35:05;;;;;;;45.03;22.67;;;7.30;99.90;;;;;;4908209;29;20056;-51
2021/12/28 10:37:37;;;;;;;40.67;20.35;;;7.40;99.90;;;;;;4900960;29;20040;-49
2021/12/28 10:40:07;;;;;;;36.80;20.85;;;7.40;99.90;;;;;;4898960;29;20060;-48
2021/12/28 10:42:38;;;;;;;41.10;20.95;;;7.50;99.90;;;;;;4902710;29;20115;-49
2021/12/28 10:45:10;;;;;;;38.75;21.83;;;7.50;99.90;;;;;;4903242;29;20566;-49
2021/12/28 10:47:49;;;;;;;39.28;19.58;;;7.50;99.90;;;;;;4899827;29;20067;-48
2021/12/28 10:50:28;;;;;;;35.58;19.92;;;7.50;99.90;;;;;;4902012;29;20048;-48
2021/12/28 10:53:08;;;;;;;41.00;20.83;;;7.60;99.90;;;;;;4899159;29;20116;-48
2021/12/28 10:55:51;;;;;;;37.92;19.95;;;7.60;99.90;;;;;;4926230;29;20063;-49
2021/12/28 10:58:30;;;;;;;39.28;19.27;;;7.70;99.90;;;;;;4906752;28;20409;-48
2021/12/28 11:01:09;;;;;;;34.63;20.15;;;7.60;99.90;;;;;;4937732;29;20398;-49
2021/12/28 11:03:38;;;;;;;30.52;17.92;;;7.60;99.90;;;;;;4935600;28;20400;-50
2021/12/28 11:06:21;;;;;;;28.65;18.00;;;7.60;99.90;;;;;;4920314;29;20066;-49
2021/12/28 11:08:49;;;;;;;27.33;17.33;;;7.70;99.90;;;;;;4923757;29;20067;-50
2021/12/28 11:11:19;;;;;;;26.83;17.42;;;7.70;99.90;;;;;;4920306;29;20138;-49
2021/12/28 11:13:46;;;;;;;27.45;16.90;;;7.80;99.90;;;;;;4945158;29;20055;-49
2021/12/28 11:16:15;;;;;;;25.02;16.13;;;7.90;99.90;;;;;;4933283;29;20477;-48
2021/12/28 11:18:43;;;;;;;28.10;16.63;;;7.80;99.90;;;;;;4938959;29;20539;-49
2021/12/28 11:21:12;;;;;;;27.83;16.65;;;7.90;99.90;;;;;;4938067;29;20047;-49
2021/12/28 11:23:38;;;;;;;24.17;15.05;;;7.80;99.90;;;;;;4941415;29;20953;-48
2021/12/28 11:26:09;;;;;;;19.20;14.52;;;7.80;99.90;;;;;;4935409;29;20494;-51
2021/12/28 11:28:35;;;;;;;18.55;13.52;;;7.90;99.90;;;;;;4922543;29;20498;-48
2021/12/28 11:31:04;;;;;;;21.00;13.73;;;7.90;99.90;;;;;;4938455;29;20403;-52
2021/12/28 11:33:53;;;;;;;17.83;13.25;;;7.90;99.90;;;;;;4936064;29;20039;-48
2021/12/28 11:36:23;;;;;;;16.35;12.68;;;8.00;99.90;;;;;;4940188;29;20060;-51
2021/12/28 11:39:01;;;;;;;16.77;11.40;;;8.00;99.90;;;;;;4938536;29;20099;-50
2021/12/28 11:41:32;;;;;;;17.50;10.63;;;7.90;99.90;;;;;;4922095;29;20059;-51
2021/12/28 11:43:58;;;;;;;16.25;11.23;;;8.10;99.90;;;;;;4938291;28;20047;-48
2021/12/28 11:46:36;;;;;;;13.82;10.05;;;8.10;99.90;;;;;;4936005;29;20790;-52
2021/12/28 11:49:05;;;;;;;17.42;9.88;;;8.00;99.90;;;;;;4943077;29;20622;-51
2021/12/28 11:51:37;;;;;;;12.27;9.15;;;8.10;99.90;;;;;;4939090;29;20589;-48
2021/12/28 11:54:07;;;;;;;10.55;8.52;;;8.20;99.90;;;;;;4938590;29;20070;-48
2021/12/28 11:56:36;;;;;;;11.48;8.38;;;8.20;99.90;;;;;;4921467;29;20425;-49
2021/12/28 11:59:28;;;;;;;12.13;8.80;;;8.20;99.90;;;;;;4944463;29;20047;-50
2021/12/28 12:02:14;;;;;;;11.40;8.50;;;8.20;99.90;;;;;;4944495;29;20145;-49
2021/12/28 12:04:49;;;;;;;12.18;8.40;;;8.20;99.90;;;;;;4940392;28;20134;-49
2021/12/28 12:07:26;;;;;;;12.85;8.48;;;8.30;99.90;;;;;;4941688;28;20087;-48
2021/12/28 12:09:52;;;;;;;13.80;9.30;;;8.20;99.90;;;;;;4940308;28;20082;-49
2021/12/28 12:12:26;;;;;;;14.07;9.77;;;8.20;99.90;;;;;;4921876;29;20479;-51
2021/12/28 12:14:52;;;;;;;15.88;10.25;;;8.20;99.90;;;;;;4933623;29;20047;-48
2021/12/28 12:17:39;;;;;;;16.40;11.60;;;8.20;99.90;;;;;;4917374;29;20066;-49
2021/12/28 12:20:09;;;;;;;17.05;10.85;;;8.20;99.90;;;;;;4934320;29;20620;-48
2021/12/28 12:22:37;;;;;;;20.27;11.73;;;8.40;99.90;;;;;;4939808;28;20087;-49
2021/12/28 12:25:42;;;;;;;15.95;11.20;;;8.20;99.90;;;;;;4941312;29;20603;-51
2021/12/28 12:28:10;;;;;;;18.95;12.80;;;8.20;99.90;;;;;;4941916;29;20426;-51
2021/12/28 12:30:51;;;;;;;16.45;10.80;;;8.30;99.90;;;;;;4939993;29;20047;-49
2021/12/28 12:33:18;;;;;;;13.43;10.85;;;8.30;99.90;;;;;;4945353;29;20047;-49
2021/12/28 12:35:52;;;;;;;13.50;10.77;;;8.40;99.90;;;;;;4931774;29;20043;-49
2021/12/28 12:38:24;;;;;;;15.93;11.60;;;8.30;99.90;;;;;;4930521;29;20454;-48
2021/12/28 12:40:54;;;;;;;15.02;11.30;;;8.30;99.90;;;;;;4949542;29;20047;-49
2021/12/28 12:43:22;;;;;;;15.82;11.48;;;8.30;99.90;;;;;;4930306;29;20174;-49